Pagrindinis puslapis
METAR-TAF:

METAR-TAF

Oro uostai :

Akra, Gana

platuma: 05-36N, ilguma: 000-10W, Aukštis: 68 m

Dabartinis oras

Ataskaita buvo paskelbta 5 valandos ir 22 minutes, ne 18:00 UTC
Vėjas 11 kt iš Pietų
Temperatūra 30°C
Drėgmė 79%
Slėgis 1007 hPa
Matomumas: 6000 m

METAR: DGAA 211800Z 18011KT 6000 NSC 30/26 Q1007 NOSIG

Laikas: 23:22 (23:22 UTC)

Prognozė

Ataskaita buvo paskelbta 6 valandos ir 22 minutes, ne 17:00 UTC
Prognozė galioja nuo 21 metu 18 UTC su 22 metu 24 UTC
Vėjas 5 kt iš Pietų
Matomumas: 8000 m
Tapsmas
nuo 22 metu 00 UTC su 22 metu 02 UTC
Vėjas 5 kt iš Vakarų
Matomumas 10 km arba daugiau
nėra debesų žemiau 1500 m ir nėra kamuolinių lietaus debesų
Tapsmas
nuo 22 metu 06 UTC su 22 metu 08 UTC
Matomumas: 3000 m
rūkana
Tapsmas
nuo 22 metu 09 UTC su 22 metu 11 UTC
Matomumas: 4000 m
migla

TAF: DGAA 211700Z 2118/2224 18005KT 8000 NSC BECMG 2200/2202 27005KT CAVOK BECMG 2206/2208 3000 BR BECMG 2209/2211 4000 HZ NSC

Orai ataskaitas ir orų prognozės (METAR, TAF).

turimą stotys yra geltonos ir raudonos taškus žemėlapyje.

Perkelti pele per norėdami pamatyti stoties vardą.

Tada spustelėkite, norėdami matyti oro stebėjimo ir prognozės.

Norėdami pakeisti žemėlapį: spustelėkite ant žalios mygtukų su juodo kryžiaus žemyn,; žalią mygtuką su brūkšneliu, jei norite nutolinti; arba žalių rodyklių gretimoms žemėlapius.


METAR-TAF: